sensor_id;sensor_type;location;lat;lon;timestamp;temperature;humidity
67868;SHT31;54672;46.096;14.470;2022-07-01T00:01:59;20.93;78.66
67868;SHT31;54672;46.096;14.470;2022-07-01T00:04:25;20.89;78.17
67868;SHT31;54672;46.096;14.470;2022-07-01T00:06:53;20.83;78.37
67868;SHT31;54672;46.096;14.470;2022-07-01T00:09:18;20.86;78.60
67868;SHT31;54672;46.096;14.470;2022-07-01T00:11:44;20.92;78.39
67868;SHT31;54672;46.096;14.470;2022-07-01T00:14:09;20.88;78.96
67868;SHT31;54672;46.096;14.470;2022-07-01T00:16:35;20.78;80.08
67868;SHT31;54672;46.096;14.470;2022-07-01T00:19:01;20.69;80.76
67868;SHT31;54672;46.096;14.470;2022-07-01T00:21:27;20.65;80.90
67868;SHT31;54672;46.096;14.470;2022-07-01T00:23:52;20.58;81.53
67868;SHT31;54672;46.096;14.470;2022-07-01T00:26:18;20.56;81.76
67868;SHT31;54672;46.096;14.470;2022-07-01T00:28:43;20.55;82.41
67868;SHT31;54672;46.096;14.470;2022-07-01T00:31:08;20.47;82.64
67868;SHT31;54672;46.096;14.470;2022-07-01T00:33:34;20.42;82.64
67868;SHT31;54672;46.096;14.470;2022-07-01T00:35:59;20.40;82.74
67868;SHT31;54672;46.096;14.470;2022-07-01T00:38:25;20.35;81.43
67868;SHT31;54672;46.096;14.470;2022-07-01T00:40:54;20.34;80.88
67868;SHT31;54672;46.096;14.470;2022-07-01T00:43:20;20.30;80.66
67868;SHT31;54672;46.096;14.470;2022-07-01T00:45:51;20.25;80.59
67868;SHT31;54672;46.096;14.470;2022-07-01T00:48:17;20.20;80.78
67868;SHT31;54672;46.096;14.470;2022-07-01T00:50:44;20.23;81.21
67868;SHT31;54672;46.096;14.470;2022-07-01T00:53:09;20.23;81.35
67868;SHT31;54672;46.096;14.470;2022-07-01T00:55:35;20.23;82.75
67868;SHT31;54672;46.096;14.470;2022-07-01T00:58:00;20.20;83.21
67868;SHT31;54672;46.096;14.470;2022-07-01T01:00:26;20.11;84.43
67868;SHT31;54672;46.096;14.470;2022-07-01T01:02:52;19.96;85.36
67868;SHT31;54672;46.096;14.470;2022-07-01T01:05:17;19.90;85.41
67868;SHT31;54672;46.096;14.470;2022-07-01T01:07:43;19.89;85.42
67868;SHT31;54672;46.096;14.470;2022-07-01T01:10:09;19.86;85.31
67868;SHT31;54672;46.096;14.470;2022-07-01T01:12:35;19.84;85.53
67868;SHT31;54672;46.096;14.470;2022-07-01T01:15:01;19.84;85.82
67868;SHT31;54672;46.096;14.470;2022-07-01T01:17:27;19.83;85.71
67868;SHT31;54672;46.096;14.470;2022-07-01T01:19:52;19.66;86.28
67868;SHT31;54672;46.096;14.470;2022-07-01T01:22:20;19.55;86.71
67868;SHT31;54672;46.096;14.470;2022-07-01T01:24:46;19.48;87.06
67868;SHT31;54672;46.096;14.470;2022-07-01T01:27:15;19.48;87.17
67868;SHT31;54672;46.096;14.470;2022-07-01T01:29:41;19.45;87.30
67868;SHT31;54672;46.096;14.470;2022-07-01T01:32:07;19.41;87.20
67868;SHT31;54672;46.096;14.470;2022-07-01T01:34:37;19.43;87.19
67868;SHT31;54672;46.096;14.470;2022-07-01T01:37:05;19.41;86.98
67868;SHT31;54672;46.096;14.470;2022-07-01T01:39:31;19.46;86.91
67868;SHT31;54672;46.096;14.470;2022-07-01T01:41:56;19.46;86.85
67868;SHT31;54672;46.096;14.470;2022-07-01T01:44:22;19.46;86.76
67868;SHT31;54672;46.096;14.470;2022-07-01T01:46:47;19.49;86.93
67868;SHT31;54672;46.096;14.470;2022-07-01T01:49:13;19.52;86.76
67868;SHT31;54672;46.096;14.470;2022-07-01T01:51:38;19.55;86.86
67868;SHT31;54672;46.096;14.470;2022-07-01T01:54:04;19.51;86.71
67868;SHT31;54672;46.096;14.470;2022-07-01T01:56:30;19.49;86.35
67868;SHT31;54672;46.096;14.470;2022-07-01T01:58:56;19.45;86.38
67868;SHT31;54672;46.096;14.470;2022-07-01T02:01:21;19.46;86.40
67868;SHT31;54672;46.096;14.470;2022-07-01T02:03:49;19.49;86.62
67868;SHT31;54672;46.096;14.470;2022-07-01T02:06:16;19.48;86.57
67868;SHT31;54672;46.096;14.470;2022-07-01T02:08:42;19.48;86.61
67868;SHT31;54672;46.096;14.470;2022-07-01T02:11:08;19.49;86.42
67868;SHT31;54672;46.096;14.470;2022-07-01T02:13:34;19.53;86.17
67868;SHT31;54672;46.096;14.470;2022-07-01T02:16:00;19.56;85.78
67868;SHT31;54672;46.096;14.470;2022-07-01T02:18:25;19.59;85.67
67868;SHT31;54672;46.096;14.470;2022-07-01T02:20:51;19.59;85.05
67868;SHT31;54672;46.096;14.470;2022-07-01T02:23:17;19.58;84.84
67868;SHT31;54672;46.096;14.470;2022-07-01T02:25:42;19.56;84.82
67868;SHT31;54672;46.096;14.470;2022-07-01T02:28:08;19.56;84.68
67868;SHT31;54672;46.096;14.470;2022-07-01T02:30:34;19.52;85.01
67868;SHT31;54672;46.096;14.470;2022-07-01T02:33:04;19.21;87.57
67868;SHT31;54672;46.096;14.470;2022-07-01T02:35:31;19.01;88.25
67868;SHT31;54672;46.096;14.470;2022-07-01T02:37:57;18.94;88.75
67868;SHT31;54672;46.096;14.470;2022-07-01T02:40:22;18.84;89.12
67868;SHT31;54672;46.096;14.470;2022-07-01T02:42:48;18.77;89.35
67868;SHT31;54672;46.096;14.470;2022-07-01T02:45:13;18.65;89.89
67868;SHT31;54672;46.096;14.470;2022-07-01T02:47:40;18.59;90.18
67868;SHT31;54672;46.096;14.470;2022-07-01T02:50:08;18.54;90.42
67868;SHT31;54672;46.096;14.470;2022-07-01T02:52:35;18.50;90.62
67868;SHT31;54672;46.096;14.470;2022-07-01T02:55:02;18.47;90.45
67868;SHT31;54672;46.096;14.470;2022-07-01T02:57:28;18.52;90.55
67868;SHT31;54672;46.096;14.470;2022-07-01T02:59:54;18.54;90.48
67868;SHT31;54672;46.096;14.470;2022-07-01T03:02:20;18.52;90.65
67868;SHT31;54672;46.096;14.470;2022-07-01T03:04:49;18.49;90.74
67868;SHT31;54672;46.096;14.470;2022-07-01T03:07:16;18.40;91.14
67868;SHT31;54672;46.096;14.470;2022-07-01T03:09:42;18.29;91.58
67868;SHT31;54672;46.096;14.470;2022-07-01T03:12:09;18.28;91.64
67868;SHT31;54672;46.096;14.470;2022-07-01T03:15:00;18.21;91.75
67868;SHT31;54672;46.096;14.470;2022-07-01T03:17:28;18.21;91.58
67868;SHT31;54672;46.096;14.470;2022-07-01T03:19:54;18.36;90.98
67868;SHT31;54672;46.096;14.470;2022-07-01T03:22:21;18.43;90.68
67868;SHT31;54672;46.096;14.470;2022-07-01T03:24:47;18.44;90.58
67868;SHT31;54672;46.096;14.470;2022-07-01T03:27:13;18.52;90.02
67868;SHT31;54672;46.096;14.470;2022-07-01T03:29:38;18.54;90.03
67868;SHT31;54672;46.096;14.470;2022-07-01T03:32:04;18.61;89.80
67868;SHT31;54672;46.096;14.470;2022-07-01T03:34:30;18.64;89.36
67868;SHT31;54672;46.096;14.470;2022-07-01T03:36:56;18.77;89.19
67868;SHT31;54672;46.096;14.470;2022-07-01T03:39:21;18.81;88.88
67868;SHT31;54672;46.096;14.470;2022-07-01T03:41:47;18.91;88.43
67868;SHT31;54672;46.096;14.470;2022-07-01T03:44:12;18.94;87.99
67868;SHT31;54672;46.096;14.470;2022-07-01T03:46:37;19.02;87.64
67868;SHT31;54672;46.096;14.470;2022-07-01T03:49:03;18.94;87.89
67868;SHT31;54672;46.096;14.470;2022-07-01T03:51:30;18.94;88.00
67868;SHT31;54672;46.096;14.470;2022-07-01T03:53:55;18.81;88.36
67868;SHT31;54672;46.096;14.470;2022-07-01T03:56:39;18.98;87.60
67868;SHT31;54672;46.096;14.470;2022-07-01T03:59:05;19.00;87.70
67868;SHT31;54672;46.096;14.470;2022-07-01T04:01:30;19.00;87.51
67868;SHT31;54672;46.096;14.470;2022-07-01T04:03:56;18.83;88.30
67868;SHT31;54672;46.096;14.470;2022-07-01T04:06:22;18.83;88.12
67868;SHT31;54672;46.096;14.470;2022-07-01T04:08:47;18.78;88.33
67868;SHT31;54672;46.096;14.470;2022-07-01T04:11:14;18.65;88.82
67868;SHT31;54672;46.096;14.470;2022-07-01T04:13:39;18.81;88.33
67868;SHT31;54672;46.096;14.470;2022-07-01T04:16:05;18.81;88.31
67868;SHT31;54672;46.096;14.470;2022-07-01T04:18:31;19.10;87.47
67868;SHT31;54672;46.096;14.470;2022-07-01T04:20:57;19.52;85.91
67868;SHT31;54672;46.096;14.470;2022-07-01T04:23:42;19.92;84.00
67868;SHT31;54672;46.096;14.470;2022-07-01T04:26:07;20.56;81.72
67868;SHT31;54672;46.096;14.470;2022-07-01T04:28:33;21.04;80.02
67868;SHT31;54672;46.096;14.470;2022-07-01T04:30:59;21.10;79.70
67868;SHT31;54672;46.096;14.470;2022-07-01T04:33:25;22.13;75.72
67868;SHT31;54672;46.096;14.470;2022-07-01T04:35:51;22.26;75.31
67868;SHT31;54672;46.096;14.470;2022-07-01T04:38:16;22.60;73.48
67868;SHT31;54672;46.096;14.470;2022-07-01T04:40:42;22.42;74.41
67868;SHT31;54672;46.096;14.470;2022-07-01T04:43:27;22.12;75.36
67868;SHT31;54672;46.096;14.470;2022-07-01T04:45:53;22.15;75.55
67868;SHT31;54672;46.096;14.470;2022-07-01T04:48:19;22.12;75.15
67868;SHT31;54672;46.096;14.470;2022-07-01T04:50:44;21.91;76.43
67868;SHT31;54672;46.096;14.470;2022-07-01T04:53:09;22.12;75.47
67868;SHT31;54672;46.096;14.470;2022-07-01T04:55:35;22.28;75.10
67868;SHT31;54672;46.096;14.470;2022-07-01T04:58:00;22.48;74.77
67868;SHT31;54672;46.096;14.470;2022-07-01T05:00:26;22.46;74.10
67868;SHT31;54672;46.096;14.470;2022-07-01T05:02:51;22.79;73.10
67868;SHT31;54672;46.096;14.470;2022-07-01T05:05:16;23.20;71.74
67868;SHT31;54672;46.096;14.470;2022-07-01T05:07:42;23.34;71.07
67868;SHT31;54672;46.096;14.470;2022-07-01T05:10:07;23.31;71.18
67868;SHT31;54672;46.096;14.470;2022-07-01T05:12:33;23.51;70.43
67868;SHT31;54672;46.096;14.470;2022-07-01T05:14:59;23.65;69.88
67868;SHT31;54672;46.096;14.470;2022-07-01T05:17:24;23.40;70.67
67868;SHT31;54672;46.096;14.470;2022-07-01T05:20:10;24.39;67.77
67868;SHT31;54672;46.096;14.470;2022-07-01T05:22:54;24.64;66.61
67868;SHT31;54672;46.096;14.470;2022-07-01T05:25:20;24.50;66.89
67868;SHT31;54672;46.096;14.470;2022-07-01T05:27:45;24.60;66.79
67868;SHT31;54672;46.096;14.470;2022-07-01T05:30:11;24.85;65.31
67868;SHT31;54672;46.096;14.470;2022-07-01T05:32:36;24.78;65.64
67868;SHT31;54672;46.096;14.470;2022-07-01T05:35:02;24.53;66.55
67868;SHT31;54672;46.096;14.470;2022-07-01T05:37:27;24.72;66.47
67868;SHT31;54672;46.096;14.470;2022-07-01T05:39:53;25.67;62.95
67868;SHT31;54672;46.096;14.470;2022-07-01T05:42:18;25.14;64.80
67868;SHT31;54672;46.096;14.470;2022-07-01T05:44:44;26.29;60.84
67868;SHT31;54672;46.096;14.470;2022-07-01T05:47:09;25.42;62.72
67868;SHT31;54672;46.096;14.470;2022-07-01T05:49:35;25.40;62.28
67868;SHT31;54672;46.096;14.470;2022-07-01T05:52:00;25.70;62.26
67868;SHT31;54672;46.096;14.470;2022-07-01T05:54:26;26.14;61.30
67868;SHT31;54672;46.096;14.470;2022-07-01T05:56:51;27.06;59.11
67868;SHT31;54672;46.096;14.470;2022-07-01T05:59:17;28.57;55.37
67868;SHT31;54672;46.096;14.470;2022-07-01T06:01:42;29.89;51.40
67868;SHT31;54672;46.096;14.470;2022-07-01T06:04:09;30.92;48.89
67868;SHT31;54672;46.096;14.470;2022-07-01T06:06:34;31.90;46.20
67868;SHT31;54672;46.096;14.470;2022-07-01T06:09:00;30.91;47.54
67868;SHT31;54672;46.096;14.470;2022-07-01T06:11:25;31.05;48.19
67868;SHT31;54672;46.096;14.470;2022-07-01T06:13:51;32.27;45.23
67868;SHT31;54672;46.096;14.470;2022-07-01T06:16:16;32.69;44.32
67868;SHT31;54672;46.096;14.470;2022-07-01T06:18:41;33.91;42.82
67868;SHT31;54672;46.096;14.470;2022-07-01T06:21:07;30.33;48.79
67868;SHT31;54672;46.096;14.470;2022-07-01T06:23:32;30.63;49.29
67868;SHT31;54672;46.096;14.470;2022-07-01T06:25:58;31.51;47.70
67868;SHT31;54672;46.096;14.470;2022-07-01T06:28:23;30.53;48.81
67868;SHT31;54672;46.096;14.470;2022-07-01T06:30:55;31.69;47.11
67868;SHT31;54672;46.096;14.470;2022-07-01T06:33:20;32.13;46.11
67868;SHT31;54672;46.096;14.470;2022-07-01T06:35:46;32.87;43.99
67868;SHT31;54672;46.096;14.470;2022-07-01T06:38:11;34.01;41.82
67868;SHT31;54672;46.096;14.470;2022-07-01T06:40:36;34.79;40.44
67868;SHT31;54672;46.096;14.470;2022-07-01T06:43:02;32.53;44.00
67868;SHT31;54672;46.096;14.470;2022-07-01T06:45:27;30.55;47.77
67868;SHT31;54672;46.096;14.470;2022-07-01T06:47:53;29.89;50.60
67868;SHT31;54672;46.096;14.470;2022-07-01T06:50:18;29.22;52.08
67868;SHT31;54672;46.096;14.470;2022-07-01T06:52:44;31.60;46.70
67868;SHT31;54672;46.096;14.470;2022-07-01T06:55:09;30.81;48.31
67868;SHT31;54672;46.096;14.470;2022-07-01T06:57:35;29.77;50.79
67868;SHT31;54672;46.096;14.470;2022-07-01T07:00:00;30.76;48.59
67868;SHT31;54672;46.096;14.470;2022-07-01T07:02:25;33.14;43.47
67868;SHT31;54672;46.096;14.470;2022-07-01T07:04:51;32.00;45.09
67868;SHT31;54672;46.096;14.470;2022-07-01T07:07:22;32.36;45.25
67868;SHT31;54672;46.096;14.470;2022-07-01T07:09:47;34.20;41.49
67868;SHT31;54672;46.096;14.470;2022-07-01T07:12:13;34.76;40.03
67868;SHT31;54672;46.096;14.470;2022-07-01T07:14:38;35.26;40.42
67868;SHT31;54672;46.096;14.470;2022-07-01T07:17:04;33.57;42.31
67868;SHT31;54672;46.096;14.470;2022-07-01T07:19:29;34.94;40.66
67868;SHT31;54672;46.096;14.470;2022-07-01T07:21:54;35.76;38.43
67868;SHT31;54672;46.096;14.470;2022-07-01T07:24:22;35.52;38.17
67868;SHT31;54672;46.096;14.470;2022-07-01T07:26:47;35.39;39.08
67868;SHT31;54672;46.096;14.470;2022-07-01T07:29:13;35.64;38.54
67868;SHT31;54672;46.096;14.470;2022-07-01T07:31:39;36.07;37.79
67868;SHT31;54672;46.096;14.470;2022-07-01T07:34:05;36.80;36.60
67868;SHT31;54672;46.096;14.470;2022-07-01T07:36:30;36.32;36.78
67868;SHT31;54672;46.096;14.470;2022-07-01T07:38:57;33.19;41.55
67868;SHT31;54672;46.096;14.470;2022-07-01T07:41:22;32.93;43.02
67868;SHT31;54672;46.096;14.470;2022-07-01T07:43:48;34.33;40.45
67868;SHT31;54672;46.096;14.470;2022-07-01T07:46:14;34.46;40.65
67868;SHT31;54672;46.096;14.470;2022-07-01T07:48:40;35.24;39.10
67868;SHT31;54672;46.096;14.470;2022-07-01T07:51:07;35.21;38.72
67868;SHT31;54672;46.096;14.470;2022-07-01T07:53:32;34.94;39.74
67868;SHT31;54672;46.096;14.470;2022-07-01T07:55:57;33.24;42.28
67868;SHT31;54672;46.096;14.470;2022-07-01T07:58:23;33.87;42.14
67868;SHT31;54672;46.096;14.470;2022-07-01T08:00:48;33.34;43.84
67868;SHT31;54672;46.096;14.470;2022-07-01T08:03:14;34.33;40.39
67868;SHT31;54672;46.096;14.470;2022-07-01T08:05:39;33.88;40.95
67868;SHT31;54672;46.096;14.470;2022-07-01T08:08:08;34.20;40.87
67868;SHT31;54672;46.096;14.470;2022-07-01T08:10:33;34.84;39.70
67868;SHT31;54672;46.096;14.470;2022-07-01T08:12:59;35.38;38.74
67868;SHT31;54672;46.096;14.470;2022-07-01T08:15:29;35.15;38.98
67868;SHT31;54672;46.096;14.470;2022-07-01T08:17:55;34.94;38.95
67868;SHT31;54672;46.096;14.470;2022-07-01T08:20:21;35.24;40.36
67868;SHT31;54672;46.096;14.470;2022-07-01T08:22:46;35.89;38.83
67868;SHT31;54672;46.096;14.470;2022-07-01T08:25:12;36.23;37.35
67868;SHT31;54672;46.096;14.470;2022-07-01T08:27:37;35.81;37.85
67868;SHT31;54672;46.096;14.470;2022-07-01T08:30:03;36.23;37.35
67868;SHT31;54672;46.096;14.470;2022-07-01T08:32:28;36.16;37.43
67868;SHT31;54672;46.096;14.470;2022-07-01T08:34:54;35.57;38.51
67868;SHT31;54672;46.096;14.470;2022-07-01T08:37:20;35.82;38.29
67868;SHT31;54672;46.096;14.470;2022-07-01T08:39:45;35.52;38.47
67868;SHT31;54672;46.096;14.470;2022-07-01T08:42:11;35.28;38.98
67868;SHT31;54672;46.096;14.470;2022-07-01T08:44:36;34.90;39.89
67868;SHT31;54672;46.096;14.470;2022-07-01T08:47:02;34.64;39.53
67868;SHT31;54672;46.096;14.470;2022-07-01T08:49:28;34.77;40.50
67868;SHT31;54672;46.096;14.470;2022-07-01T08:51:53;34.96;39.54
67868;SHT31;54672;46.096;14.470;2022-07-01T08:54:19;34.38;40.75
67868;SHT31;54672;46.096;14.470;2022-07-01T08:56:44;34.69;39.86
67868;SHT31;54672;46.096;14.470;2022-07-01T08:59:21;34.69;39.89
67868;SHT31;54672;46.096;14.470;2022-07-01T09:01:54;34.67;39.72
67868;SHT31;54672;46.096;14.470;2022-07-01T09:04:20;34.74;39.55
67868;SHT31;54672;46.096;14.470;2022-07-01T09:06:47;34.91;39.03
67868;SHT31;54672;46.096;14.470;2022-07-01T09:09:15;34.13;40.25
67868;SHT31;54672;46.096;14.470;2022-07-01T09:11:51;34.77;39.36
67868;SHT31;54672;46.096;14.470;2022-07-01T09:14:21;35.31;38.88
67868;SHT31;54672;46.096;14.470;2022-07-01T09:16:50;35.21;38.55
67868;SHT31;54672;46.096;14.470;2022-07-01T09:19:17;35.27;38.76
67868;SHT31;54672;46.096;14.470;2022-07-01T09:21:48;35.72;39.09
67868;SHT31;54672;46.096;14.470;2022-07-01T09:24:36;36.36;37.14
67868;SHT31;54672;46.096;14.470;2022-07-01T09:29:35;37.41;35.47
67868;SHT31;54672;46.096;14.470;2022-07-01T09:32:03;37.41;34.87
67868;SHT31;54672;46.096;14.470;2022-07-01T09:34:40;33.70;40.28
67868;SHT31;54672;46.096;14.470;2022-07-01T09:37:06;33.99;41.76
67868;SHT31;54672;46.096;14.470;2022-07-01T09:39:48;34.87;39.27
67868;SHT31;54672;46.096;14.470;2022-07-01T09:42:15;34.76;39.71
67868;SHT31;54672;46.096;14.470;2022-07-01T09:44:53;33.78;40.98
67868;SHT31;54672;46.096;14.470;2022-07-01T09:47:22;32.90;42.03
67868;SHT31;54672;46.096;14.470;2022-07-01T09:49:49;32.27;42.92
67868;SHT31;54672;46.096;14.470;2022-07-01T09:52:14;31.70;44.52
67868;SHT31;54672;46.096;14.470;2022-07-01T09:54:41;31.72;45.28
67868;SHT31;54672;46.096;14.470;2022-07-01T09:57:07;31.84;44.14
67868;SHT31;54672;46.096;14.470;2022-07-01T09:59:32;32.00;43.53
67868;SHT31;54672;46.096;14.470;2022-07-01T10:02:00;31.95;43.11
67868;SHT31;54672;46.096;14.470;2022-07-01T10:04:26;31.90;42.96
67868;SHT31;54672;46.096;14.470;2022-07-01T10:07:00;32.04;42.09
67868;SHT31;54672;46.096;14.470;2022-07-01T10:14:37;32.93;39.64
67868;SHT31;54672;46.096;14.470;2022-07-01T10:17:04;33.14;38.91
67868;SHT31;54672;46.096;14.470;2022-07-01T10:19:30;33.02;37.75
67868;SHT31;54672;46.096;14.470;2022-07-01T10:22:00;33.03;37.54
67868;SHT31;54672;46.096;14.470;2022-07-01T10:24:26;33.10;37.32
67868;SHT31;54672;46.096;14.470;2022-07-01T10:26:58;32.87;36.36
67868;SHT31;54672;46.096;14.470;2022-07-01T10:29:31;32.80;37.79
67868;SHT31;54672;46.096;14.470;2022-07-01T10:34:34;33.30;37.19
67868;SHT31;54672;46.096;14.470;2022-07-01T10:37:04;33.51;37.56
67868;SHT31;54672;46.096;14.470;2022-07-01T10:39:58;33.29;35.76
67868;SHT31;54672;46.096;14.470;2022-07-01T10:42:32;33.09;37.01
67868;SHT31;54672;46.096;14.470;2022-07-01T10:45:11;33.26;36.53
67868;SHT31;54672;46.096;14.470;2022-07-01T10:47:38;33.33;36.87
67868;SHT31;54672;46.096;14.470;2022-07-01T10:50:09;33.53;36.31
67868;SHT31;54672;46.096;14.470;2022-07-01T10:52:36;33.58;36.07
67868;SHT31;54672;46.096;14.470;2022-07-01T10:55:04;33.55;35.86
67868;SHT31;54672;46.096;14.470;2022-07-01T10:57:40;33.58;35.15
67868;SHT31;54672;46.096;14.470;2022-07-01T11:02:38;33.14;37.06
67868;SHT31;54672;46.096;14.470;2022-07-01T11:05:07;33.39;37.14
67868;SHT31;54672;46.096;14.470;2022-07-01T11:07:34;33.58;36.57
67868;SHT31;54672;46.096;14.470;2022-07-01T11:10:01;33.55;36.34
67868;SHT31;54672;46.096;14.470;2022-07-01T11:12:28;33.62;36.28
67868;SHT31;54672;46.096;14.470;2022-07-01T11:14:55;33.60;35.54
67868;SHT31;54672;46.096;14.470;2022-07-01T11:17:21;33.85;35.80
67868;SHT31;54672;46.096;14.470;2022-07-01T11:19:54;33.71;35.84
67868;SHT31;54672;46.096;14.470;2022-07-01T11:22:26;33.91;36.33
67868;SHT31;54672;46.096;14.470;2022-07-01T11:24:53;33.87;35.62
67868;SHT31;54672;46.096;14.470;2022-07-01T11:27:19;34.05;35.90
67868;SHT31;54672;46.096;14.470;2022-07-01T11:29:53;34.08;35.36
67868;SHT31;54672;46.096;14.470;2022-07-01T11:32:29;34.18;36.67
67868;SHT31;54672;46.096;14.470;2022-07-01T11:34:55;34.08;35.27
67868;SHT31;54672;46.096;14.470;2022-07-01T11:37:21;34.06;35.75
67868;SHT31;54672;46.096;14.470;2022-07-01T11:40:07;34.16;35.40
67868;SHT31;54672;46.096;14.470;2022-07-01T11:42:34;34.13;35.00
67868;SHT31;54672;46.096;14.470;2022-07-01T11:45:00;34.08;35.25
67868;SHT31;54672;46.096;14.470;2022-07-01T11:47:26;34.28;34.78
67868;SHT31;54672;46.096;14.470;2022-07-01T11:49:52;34.23;34.70
67868;SHT31;54672;46.096;14.470;2022-07-01T11:52:19;34.23;35.77
67868;SHT31;54672;46.096;14.470;2022-07-01T11:54:48;34.38;34.70
67868;SHT31;54672;46.096;14.470;2022-07-01T11:57:19;34.39;35.39
67868;SHT31;54672;46.096;14.470;2022-07-01T11:59:46;34.49;35.08
67868;SHT31;54672;46.096;14.470;2022-07-01T12:02:13;34.45;33.88
67868;SHT31;54672;46.096;14.470;2022-07-01T12:04:40;34.52;33.88
67868;SHT31;54672;46.096;14.470;2022-07-01T12:07:05;34.25;34.05
67868;SHT31;54672;46.096;14.470;2022-07-01T12:09:31;33.98;34.79
67868;SHT31;54672;46.096;14.470;2022-07-01T12:11:57;33.99;35.51
67868;SHT31;54672;46.096;14.470;2022-07-01T12:14:28;34.46;35.34
67868;SHT31;54672;46.096;14.470;2022-07-01T12:16:58;34.36;36.15
67868;SHT31;54672;46.096;14.470;2022-07-01T12:19:37;34.67;34.69
67868;SHT31;54672;46.096;14.470;2022-07-01T12:22:10;34.70;35.77
67868;SHT31;54672;46.096;14.470;2022-07-01T12:24:36;34.91;34.76
67868;SHT31;54672;46.096;14.470;2022-07-01T12:27:06;34.89;33.81
67868;SHT31;54672;46.096;14.470;2022-07-01T12:32:16;35.00;34.37
67868;SHT31;54672;46.096;14.470;2022-07-01T12:37:13;34.64;34.84
67868;SHT31;54672;46.096;14.470;2022-07-01T12:39:47;34.77;34.84
67868;SHT31;54672;46.096;14.470;2022-07-01T12:44:54;35.04;34.78
67868;SHT31;54672;46.096;14.470;2022-07-01T12:47:32;35.21;34.15
67868;SHT31;54672;46.096;14.470;2022-07-01T12:52:36;34.42;35.56
67868;SHT31;54672;46.096;14.470;2022-07-01T12:55:18;33.97;35.77
67868;SHT31;54672;46.096;14.470;2022-07-01T12:57:49;33.60;35.62
67868;SHT31;54672;46.096;14.470;2022-07-01T13:00:16;33.30;37.17
67868;SHT31;54672;46.096;14.470;2022-07-01T13:02:42;33.00;38.51
67868;SHT31;54672;46.096;14.470;2022-07-01T13:05:07;32.69;39.68
67868;SHT31;54672;46.096;14.470;2022-07-01T13:07:33;32.38;46.48
67868;SHT31;54672;46.096;14.470;2022-07-01T13:09:58;31.27;51.78
67868;SHT31;54672;46.096;14.470;2022-07-01T13:12:24;30.14;53.53
67868;SHT31;54672;46.096;14.470;2022-07-01T13:14:49;29.66;55.68
67868;SHT31;54672;46.096;14.470;2022-07-01T13:17:15;29.75;57.16
67868;SHT31;54672;46.096;14.470;2022-07-01T13:19:41;29.83;55.92
67868;SHT31;54672;46.096;14.470;2022-07-01T13:22:06;29.97;58.35
67868;SHT31;54672;46.096;14.470;2022-07-01T13:24:31;30.37;53.45
67868;SHT31;54672;46.096;14.470;2022-07-01T13:26:57;30.44;49.73
67868;SHT31;54672;46.096;14.470;2022-07-01T13:29:22;30.37;50.85
67868;SHT31;54672;46.096;14.470;2022-07-01T13:31:48;30.35;50.96
67868;SHT31;54672;46.096;14.470;2022-07-01T13:34:14;30.40;48.92
67868;SHT31;54672;46.096;14.470;2022-07-01T13:36:39;30.21;49.94
67868;SHT31;54672;46.096;14.470;2022-07-01T13:39:05;30.34;51.01
67868;SHT31;54672;46.096;14.470;2022-07-01T13:41:30;30.54;50.02
67868;SHT31;54672;46.096;14.470;2022-07-01T13:43:56;30.75;49.28
67868;SHT31;54672;46.096;14.470;2022-07-01T13:46:21;31.03;49.46
67868;SHT31;54672;46.096;14.470;2022-07-01T13:48:46;31.08;49.16
67868;SHT31;54672;46.096;14.470;2022-07-01T13:51:12;30.89;49.89
67868;SHT31;54672;46.096;14.470;2022-07-01T13:53:38;31.02;49.44
67868;SHT31;54672;46.096;14.470;2022-07-01T13:56:03;30.72;50.37
67868;SHT31;54672;46.096;14.470;2022-07-01T13:58:29;30.74;49.53
67868;SHT31;54672;46.096;14.470;2022-07-01T14:00:55;30.68;49.77
67868;SHT31;54672;46.096;14.470;2022-07-01T14:03:20;30.47;50.00
67868;SHT31;54672;46.096;14.470;2022-07-01T14:05:46;30.44;49.93
67868;SHT31;54672;46.096;14.470;2022-07-01T14:08:11;30.40;50.45
67868;SHT31;54672;46.096;14.470;2022-07-01T14:10:37;30.23;50.69
67868;SHT31;54672;46.096;14.470;2022-07-01T14:13:04;30.53;50.37
67868;SHT31;54672;46.096;14.470;2022-07-01T14:15:30;30.72;50.11
67868;SHT31;54672;46.096;14.470;2022-07-01T14:17:55;30.69;49.61
67868;SHT31;54672;46.096;14.470;2022-07-01T14:20:21;31.06;49.51
67868;SHT31;54672;46.096;14.470;2022-07-01T14:22:47;31.29;49.22
67868;SHT31;54672;46.096;14.470;2022-07-01T14:25:12;31.08;50.06
67868;SHT31;54672;46.096;14.470;2022-07-01T14:27:38;31.33;50.18
67868;SHT31;54672;46.096;14.470;2022-07-01T14:30:04;30.99;50.65
67868;SHT31;54672;46.096;14.470;2022-07-01T14:32:31;31.06;50.88
67868;SHT31;54672;46.096;14.470;2022-07-01T14:34:57;31.05;51.06
67868;SHT31;54672;46.096;14.470;2022-07-01T14:37:22;30.71;51.77
67868;SHT31;54672;46.096;14.470;2022-07-01T14:39:48;30.76;52.70
67868;SHT31;54672;46.096;14.470;2022-07-01T14:42:18;30.75;52.74
67868;SHT31;54672;46.096;14.470;2022-07-01T14:44:43;30.67;52.53
67868;SHT31;54672;46.096;14.470;2022-07-01T14:47:09;30.54;52.48
67868;SHT31;54672;46.096;14.470;2022-07-01T14:49:34;30.45;52.07
67868;SHT31;54672;46.096;14.470;2022-07-01T14:52:02;30.43;51.35
67868;SHT31;54672;46.096;14.470;2022-07-01T14:54:28;30.14;52.53
67868;SHT31;54672;46.096;14.470;2022-07-01T14:56:54;30.13;52.57
67868;SHT31;54672;46.096;14.470;2022-07-01T14:59:19;30.10;52.55
67868;SHT31;54672;46.096;14.470;2022-07-01T15:01:45;30.04;52.44
67868;SHT31;54672;46.096;14.470;2022-07-01T15:04:10;29.80;53.21
67868;SHT31;54672;46.096;14.470;2022-07-01T15:06:36;29.83;53.90
67868;SHT31;54672;46.096;14.470;2022-07-01T15:09:01;29.80;54.27
67868;SHT31;54672;46.096;14.470;2022-07-01T15:11:27;29.69;53.34
67868;SHT31;54672;46.096;14.470;2022-07-01T15:13:53;29.63;52.90
67868;SHT31;54672;46.096;14.470;2022-07-01T15:16:18;29.54;53.30
67868;SHT31;54672;46.096;14.470;2022-07-01T15:18:44;29.46;53.62
67868;SHT31;54672;46.096;14.470;2022-07-01T15:21:09;29.28;55.00
67868;SHT31;54672;46.096;14.470;2022-07-01T15:23:35;29.05;55.88
67868;SHT31;54672;46.096;14.470;2022-07-01T15:26:00;28.77;57.78
67868;SHT31;54672;46.096;14.470;2022-07-01T15:28:26;28.32;58.82
67868;SHT31;54672;46.096;14.470;2022-07-01T15:30:51;28.13;59.55
67868;SHT31;54672;46.096;14.470;2022-07-01T15:33:17;27.98;58.36
67868;SHT31;54672;46.096;14.470;2022-07-01T15:35:43;27.78;56.65
67868;SHT31;54672;46.096;14.470;2022-07-01T15:38:08;27.67;56.59